This is the latest recevied weather packets stored in our database for station/object K5WNG. If no packets are shown the sender has not sent any weather packets the latest 10 day(s).
| Time | Temp. | Humidity | Pressure | Rain* | Wind** | Luminosity | Snow |
|---|---|---|---|---|---|---|---|
| 1777560021 | 16.11° C | 98% | 1013.4 hPa | 0 mm | - | 89 W/m² | - |
| 1777559724 | 16.11° C | 98% | 1013.4 hPa | 0 mm | - | 76 W/m² | - |
| 1777559421 | 16.11° C | 98% | 1013.3 hPa | 0 mm | - | 76 W/m² | - |
| 1777559124 | 16.11° C | 99% | 1013.4 hPa | 0 mm | - | 47 W/m² | - |
| 1777558821 | 16.11° C | 99% | 1013.5 hPa | 0 mm | - | 42 W/m² | - |
| 1777558525 | 16.11° C | 99% | 1013.6 hPa | 0 mm | - | 30 W/m² | - |
| 1777558221 | 16.11° C | 99% | 1013.6 hPa | 0 mm | - | 19 W/m² | - |
| 1777557626 | 16.11° C | 99% | 1013 hPa | 0 mm | - | 45 W/m² | - |
| 1777557024 | 16.11° C | 99% | 1012.4 hPa | 0 mm | - | 95 W/m² | - |
| 1777556722 | 16.11° C | 99% | 1012.5 hPa | 0 mm | - | 74 W/m² | - |
| 1777556122 | 15.56° C | 99% | 1012.8 hPa | 0 mm | - | 46 W/m² | - |
| 1777555525 | 15.56° C | 99% | 1013 hPa | 0 mm | - | 24 W/m² | - |
| 1777555227 | 15.56° C | 99% | 1013.1 hPa | 0 mm | - | 18 W/m² | - |
| 1777554922 | 15.56° C | 99% | 1013.1 hPa | 0 mm | - | 14 W/m² | - |
| 1777554626 | 15.56° C | 99% | 1013 hPa | 0 mm | - | 11 W/m² | - |
| 1777554325 | 15.56° C | 99% | 1012.9 hPa | 0 mm | - | 10 W/m² | - |
| 1777553722 | 15.56° C | 98% | 1012.5 hPa | 0 mm | - | 10 W/m² | - |
| 1777553123 | 15.56° C | 98% | 1012.4 hPa | 0 mm | - | 7 W/m² | - |
| 1777552526 | 15.56° C | 98% | 1012.3 hPa | 0 mm | - | 6 W/m² | - |
| 1777552223 | 15.56° C | 99% | 1012.1 hPa | 0 mm | - | 5 W/m² | - |
| 1777551923 | 15.56° C | 99% | 1011.9 hPa | 0 mm | - | 4 W/m² | - |
| 1777551626 | 15.56° C | 99% | 1011.8 hPa | 0 mm | - | 4 W/m² | - |
| 1777551323 | 15.56° C | 99% | 1011.5 hPa | 0 mm | - | 4 W/m² | - |
| 1777550423 | 15.56° C | 99% | 1011.1 hPa | 0 mm | - | 2 W/m² | - |
| 1777548624 | 15.56° C | 99% | 1011.2 hPa | 0 mm | - | 0 W/m² | - |
* Rain latest hour (hover to see other rain measurements)
** Current wind speed in m/s (hover to see current wind gust speed)